| |
Missouri Department of Transportation

Social Media Facebook Twitter Flickr Instagram YouTube RSS

Current METAR Information for All MoDOT Locations 
AWOS Home - General Info for all Airports
Current AWOS for all Airports - Current METAR for all Airports
Glossary - Disclaimer - Other Links


Automated Weather Observation System
Date: 05-01-2016
 
Location Current METAR Record
HANNIBAL METAR KHAE 012109Z AUTO 33003KT 7SM BKN008 BKN013 OVC060 16/12 A2996 RMK AO2
HARRISONVILLE METAR KLRY 012121Z AUTO 28008KT 10SM OVC070 18/06 A3004 RMK AO2
LEBANON  No current data available
MALDEN METAR KMAW 012109Z AUTO 26009KT 10SM CLR 27/17 A2991 RMK AO2
MARSHALL METAR KMHL 012117Z AUTO 30014G20KT 10SM BKN048 BKN060 OVC075 17/10 A3001 RMK AO2
MARYVILLE  No current data available
MEXICO METAR KMYJ 012059Z AUTO 25017G23KT 10SM SCT070 20/11 A2996 RMK AO2
MOBERLY  No current data available
NEVADA  No current data available
PIEDMONT  No current data available
SIKESTON  No current data available
SULLIVAN  No current data available
WARSAW METAR KRAW 012112Z AUTO 28011G15KT 10SM SCT046 SCT060 17/06 A3001 RMK AO2
About Us
How Do I...
Contact Us
Missouri Department of Transportation
Central Office
105 W. Capitol Avenue
Jefferson City, MO 65102
1-888-ASK-MODOT (275-6636)
1-866-831-6277 (Motor Carrier Services)
Driver's License Offices
horz_bar
| | |
Missouri State Government
© 2013 Missouri Department of Transportation. All Rights Reserved.   Privacy Policy.
 
 
 
 
RSS FeedYoutubeBlogFlickrTwitter Facebook